Time;durP1;ratioP1;P1;durP2;ratioP2;P2;SDS_P1;SDS_P2;PMS_P1;PMS_P2;Temp;Humidity;BMP_temperature;BMP_pressure;BME280_temperature;BME280_humidity;BME280_pressure;Samples;Min_cycle;Max_cycle;Signal;HPM_P1;HPM_P2
2021/12/04 00:02:27;;;;;;;2.90;1.88;;;;;;;;;;5025326;28;20236;-76
2021/12/04 00:04:56;;;;;;;2.20;1.45;;;;;;;;;;5022953;28;20203;-75
2021/12/04 00:07:23;;;;;;;1.35;1.10;;;;;;;;;;5023624;27;20231;-76
2021/12/04 00:09:57;;;;;;;5.35;1.63;;;;;;;;;;5044923;27;20214;-73
2021/12/04 00:12:24;;;;;;;1.50;1.40;;;;;;;;;;5030945;27;20212;-76
2021/12/04 00:14:52;;;;;;;1.83;1.40;;;;;;;;;;5029775;27;20210;-76
2021/12/04 00:17:19;;;;;;;3.83;2.08;;;;;;;;;;5073101;27;20203;-77
2021/12/04 00:19:48;;;;;;;2.38;1.95;;;;;;;;;;5025285;28;20673;-74
2021/12/04 00:22:15;;;;;;;1.85;1.45;;;;;;;;;;5025573;27;20216;-74
2021/12/04 00:24:42;;;;;;;3.15;1.52;;;;;;;;;;5027037;27;20573;-74
2021/12/04 00:27:09;;;;;;;1.45;1.20;;;;;;;;;;5028676;28;20207;-75
2021/12/04 00:29:36;;;;;;;1.40;1.30;;;;;;;;;;5022445;28;20224;-75
2021/12/04 00:32:09;;;;;;;2.17;1.63;;;;;;;;;;5028886;27;20243;-74
2021/12/04 00:34:41;;;;;;;1.63;1.52;;;;;;;;;;5021246;28;20207;-73
2021/12/04 00:37:37;;;;;;;1.73;1.50;;;;;;;;;;5021121;28;20211;-75
2021/12/04 00:51:00;;;;;;;1.65;1.55;;;;;;;;;;5034866;27;20614;-75
2021/12/04 00:53:28;;;;;;;1.83;1.73;;;;;;;;;;5043098;27;20638;-76
2021/12/04 00:55:55;;;;;;;1.48;1.15;;;;;;;;;;5028849;28;20203;-76
2021/12/04 00:58:22;;;;;;;1.40;1.20;;;;;;;;;;5015384;28;20202;-75
2021/12/04 01:00:49;;;;;;;2.00;1.35;;;;;;;;;;5024484;27;20581;-75
2021/12/04 01:03:16;;;;;;;1.50;1.40;;;;;;;;;;5009309;28;20727;-76
2021/12/04 01:05:44;;;;;;;2.08;1.10;;;;;;;;;;5019772;27;20192;-75
2021/12/04 01:08:11;;;;;;;1.88;1.38;;;;;;;;;;5021156;28;20200;-76
2021/12/04 01:10:39;;;;;;;1.30;1.20;;;;;;;;;;5046122;27;20207;-76
2021/12/04 01:13:11;;;;;;;1.20;1.08;;;;;;;;;;5034585;27;20292;-75
2021/12/04 01:15:38;;;;;;;1.40;1.30;;;;;;;;;;5024062;28;20200;-76
2021/12/04 01:18:05;;;;;;;1.33;1.23;;;;;;;;;;5051322;27;20663;-76
2021/12/04 01:20:32;;;;;;;1.63;1.52;;;;;;;;;;5047995;27;20558;-76
2021/12/04 01:22:59;;;;;;;1.75;1.42;;;;;;;;;;5027144;28;20196;-76
2021/12/04 01:25:26;;;;;;;2.58;1.20;;;;;;;;;;5035021;27;20200;-75
2021/12/04 01:27:55;;;;;;;1.67;1.20;;;;;;;;;;5027906;27;20714;-76
2021/12/04 01:30:22;;;;;;;1.40;1.30;;;;;;;;;;5018236;28;20218;-75
2021/12/04 01:32:49;;;;;;;1.48;1.38;;;;;;;;;;5019767;28;20223;-76
2021/12/04 01:35:16;;;;;;;2.53;1.38;;;;;;;;;;5012193;28;20195;-75
2021/12/04 01:37:43;;;;;;;1.20;1.10;;;;;;;;;;5027291;28;20211;-76
2021/12/04 01:40:11;;;;;;;1.48;1.38;;;;;;;;;;5008216;28;20635;-76
2021/12/04 01:42:38;;;;;;;1.40;1.27;;;;;;;;;;5027270;28;20196;-76
2021/12/04 01:45:08;;;;;;;1.73;1.63;;;;;;;;;;5041365;28;20852;-75
2021/12/04 01:47:35;;;;;;;1.27;1.17;;;;;;;;;;5022065;28;20647;-75
2021/12/04 01:50:02;;;;;;;2.72;1.10;;;;;;;;;;5017013;28;20225;-75
2021/12/04 01:52:29;;;;;;;1.30;1.20;;;;;;;;;;5053806;27;20223;-75
2021/12/04 01:54:57;;;;;;;1.70;1.60;;;;;;;;;;5013652;28;20195;-75
2021/12/04 01:57:25;;;;;;;1.75;1.65;;;;;;;;;;5011442;28;20215;-76
2021/12/04 01:59:52;;;;;;;1.50;1.10;;;;;;;;;;5011035;28;20713;-75
2021/12/04 02:02:21;;;;;;;1.60;1.50;;;;;;;;;;5020419;28;20218;-75
2021/12/04 02:04:48;;;;;;;1.40;1.00;;;;;;;;;;5027590;27;20647;-75
2021/12/04 02:07:16;;;;;;;1.45;1.15;;;;;;;;;;5030344;28;20210;-75
2021/12/04 02:09:43;;;;;;;1.20;1.00;;;;;;;;;;5029470;28;20248;-76
2021/12/04 02:12:11;;;;;;;1.10;1.00;;;;;;;;;;5019948;28;20217;-76
2021/12/04 02:14:39;;;;;;;4.03;1.10;;;;;;;;;;5030453;27;20647;-75
2021/12/04 02:17:07;;;;;;;1.30;1.20;;;;;;;;;;5012063;28;20215;-75
2021/12/04 02:19:36;;;;;;;1.20;1.05;;;;;;;;;;5028276;27;20267;-76
2021/12/04 02:22:05;;;;;;;1.63;1.33;;;;;;;;;;5030894;28;20199;-75
2021/12/04 02:24:32;;;;;;;1.50;1.30;;;;;;;;;;5028719;28;20206;-75
2021/12/04 02:26:59;;;;;;;1.40;1.20;;;;;;;;;;5022243;28;20198;-75
2021/12/04 02:29:26;;;;;;;1.40;1.30;;;;;;;;;;5029822;28;20207;-75
2021/12/04 02:31:55;;;;;;;1.65;1.55;;;;;;;;;;5025480;27;20230;-76
2021/12/04 02:34:22;;;;;;;1.83;1.67;;;;;;;;;;5032191;27;20203;-75
2021/12/04 02:36:49;;;;;;;1.90;1.50;;;;;;;;;;5029881;28;20191;-75
2021/12/04 02:39:23;;;;;;;2.30;1.80;;;;;;;;;;5074307;27;20204;-75
2021/12/04 02:41:50;;;;;;;1.40;1.00;;;;;;;;;;5029106;28;20200;-75
2021/12/04 02:44:18;;;;;;;1.65;1.30;;;;;;;;;;5024541;28;20570;-75
2021/12/04 02:46:45;;;;;;;1.13;1.02;;;;;;;;;;5013573;28;20666;-75
2021/12/04 02:49:15;;;;;;;1.25;1.13;;;;;;;;;;5029507;27;20654;-75
2021/12/04 02:51:42;;;;;;;1.58;1.20;;;;;;;;;;5066595;27;20726;-75
2021/12/04 02:54:11;;;;;;;1.08;0.98;;;;;;;;;;5018081;28;20419;-75
2021/12/04 02:56:43;;;;;;;1.52;1.40;;;;;;;;;;5028227;28;20202;-75
2021/12/04 02:59:10;;;;;;;1.50;1.25;;;;;;;;;;5042153;27;20219;-76
2021/12/04 03:01:38;;;;;;;1.50;1.30;;;;;;;;;;5054946;27;20674;-76
2021/12/04 03:04:06;;;;;;;1.40;1.10;;;;;;;;;;5047888;27;20249;-76
2021/12/04 03:06:39;;;;;;;1.17;1.02;;;;;;;;;;5036469;27;20315;-75
2021/12/04 03:09:06;;;;;;;1.65;1.35;;;;;;;;;;5012328;28;20281;-75
2021/12/04 03:11:33;;;;;;;1.95;1.85;;;;;;;;;;5042386;27;20516;-76
2021/12/04 03:14:01;;;;;;;2.47;1.60;;;;;;;;;;5029508;28;20191;-76
2021/12/04 03:16:29;;;;;;;1.55;1.42;;;;;;;;;;5019407;28;20210;-76
2021/12/04 03:18:56;;;;;;;1.58;1.40;;;;;;;;;;5041532;27;20524;-75
2021/12/04 03:21:23;;;;;;;1.25;1.15;;;;;;;;;;5029902;28;20590;-75
2021/12/04 03:23:56;;;;;;;1.38;1.20;;;;;;;;;;5019997;28;20201;-75
2021/12/04 03:26:24;;;;;;;1.88;1.35;;;;;;;;;;5013371;28;20242;-76
2021/12/04 03:28:53;;;;;;;1.30;1.20;;;;;;;;;;5028862;28;20582;-75
2021/12/04 03:31:27;;;;;;;1.45;1.35;;;;;;;;;;5020091;27;20228;-76
2021/12/04 03:42:08;;;;;;;1.92;1.35;;;;;;;;;;5028007;28;20669;-76
2021/12/04 03:44:36;;;;;;;2.05;1.45;;;;;;;;;;5028246;27;20655;-76
2021/12/04 03:47:04;;;;;;;1.50;1.30;;;;;;;;;;5024161;27;20208;-76
2021/12/04 03:49:32;;;;;;;1.50;1.40;;;;;;;;;;5044589;27;20204;-76
2021/12/04 03:51:59;;;;;;;1.85;1.45;;;;;;;;;;5028279;28;20203;-76
2021/12/04 03:54:26;;;;;;;1.50;1.33;;;;;;;;;;5023648;28;20215;-76
2021/12/04 03:57:02;;;;;;;2.92;1.30;;;;;;;;;;5024482;27;20552;-73
2021/12/04 03:59:30;;;;;;;1.25;1.15;;;;;;;;;;5016675;28;20702;-75
2021/12/04 04:01:57;;;;;;;1.95;1.73;;;;;;;;;;5024107;28;20210;-75
2021/12/04 04:04:25;;;;;;;1.83;1.60;;;;;;;;;;5028066;28;20200;-76
2021/12/04 04:06:52;;;;;;;1.65;1.55;;;;;;;;;;5028448;28;20196;-76
2021/12/04 04:09:19;;;;;;;1.48;1.23;;;;;;;;;;5014465;28;20210;-76
2021/12/04 04:11:47;;;;;;;2.30;1.20;;;;;;;;;;5019660;27;20196;-76
2021/12/04 04:14:15;;;;;;;1.35;1.20;;;;;;;;;;5022515;28;20302;-75
2021/12/04 04:16:42;;;;;;;1.75;1.58;;;;;;;;;;5017036;27;20247;-75
2021/12/04 04:19:10;;;;;;;1.33;1.23;;;;;;;;;;5011336;27;20219;-76
2021/12/04 04:21:41;;;;;;;2.15;1.60;;;;;;;;;;5010208;28;20204;-75
2021/12/04 04:24:08;;;;;;;1.50;1.35;;;;;;;;;;5032771;27;20295;-76
2021/12/04 04:26:35;;;;;;;1.48;1.38;;;;;;;;;;5117550;27;20827;-75
2021/12/04 04:29:02;;;;;;;1.77;1.40;;;;;;;;;;5028649;27;20663;-75
2021/12/04 04:31:29;;;;;;;1.20;1.02;;;;;;;;;;5037177;27;20681;-75
2021/12/04 04:34:01;;;;;;;1.30;1.20;;;;;;;;;;5028493;28;20230;-76
2021/12/04 04:36:41;;;;;;;1.55;1.25;;;;;;;;;;5030686;28;20271;-76
2021/12/04 04:39:27;;;;;;;1.05;0.95;;;;;;;;;;5030477;27;20698;-76
2021/12/04 04:58:41;;;;;;;1.13;1.02;;;;;;;;;;5024001;28;20416;-75
2021/12/04 05:01:22;;;;;;;1.55;1.15;;;;;;;;;;5058113;27;20228;-74
2021/12/04 05:12:10;;;;;;;1.30;1.20;;;;;;;;;;5098223;27;20187;-75
2021/12/04 05:14:41;;;;;;;1.65;1.40;;;;;;;;;;5086024;27;20193;-75
2021/12/04 05:17:10;;;;;;;1.92;1.67;;;;;;;;;;5021978;28;20206;-74
2021/12/04 05:19:44;;;;;;;1.35;1.25;;;;;;;;;;5024771;28;20698;-74
2021/12/04 05:22:12;;;;;;;1.95;1.27;;;;;;;;;;5008202;28;20663;-75
2021/12/04 05:24:39;;;;;;;1.20;1.10;;;;;;;;;;5055085;27;20211;-74
2021/12/04 05:27:08;;;;;;;1.50;1.20;;;;;;;;;;5008116;28;20215;-74
2021/12/04 05:29:36;;;;;;;1.75;1.45;;;;;;;;;;5040115;28;20200;-74
2021/12/04 05:32:03;;;;;;;1.45;1.20;;;;;;;;;;5020573;28;20195;-74
2021/12/04 05:34:30;;;;;;;1.20;1.10;;;;;;;;;;5021650;28;20229;-74
2021/12/04 05:36:58;;;;;;;2.40;1.33;;;;;;;;;;5027751;28;20552;-76
2021/12/04 05:39:25;;;;;;;1.40;1.25;;;;;;;;;;5019606;28;20197;-75
2021/12/04 05:41:52;;;;;;;1.45;1.35;;;;;;;;;;5027623;28;20203;-75
2021/12/04 05:44:24;;;;;;;1.40;1.30;;;;;;;;;;5022215;28;20486;-75
2021/12/04 05:46:56;;;;;;;1.40;1.30;;;;;;;;;;5024905;28;20195;-75
2021/12/04 05:49:26;;;;;;;1.40;1.20;;;;;;;;;;5019185;28;20219;-74
2021/12/04 05:52:09;;;;;;;1.52;1.25;;;;;;;;;;5007841;28;20291;-74
2021/12/04 05:54:57;;;;;;;1.30;1.20;;;;;;;;;;5028822;28;20235;-74
2021/12/04 05:57:24;;;;;;;1.65;1.25;;;;;;;;;;5026864;28;20286;-75
2021/12/04 05:59:52;;;;;;;1.50;1.10;;;;;;;;;;5021236;28;20560;-75
2021/12/04 06:02:21;;;;;;;1.50;1.30;;;;;;;;;;5021245;28;20199;-75
2021/12/04 06:04:48;;;;;;;1.48;1.10;;;;;;;;;;5027479;28;20570;-74
2021/12/04 06:07:15;;;;;;;1.23;1.13;;;;;;;;;;5027974;28;20200;-74
2021/12/04 06:09:42;;;;;;;1.52;1.35;;;;;;;;;;5028456;28;20578;-74
2021/12/04 06:12:09;;;;;;;2.05;1.40;;;;;;;;;;5027207;28;20200;-75
2021/12/04 06:14:36;;;;;;;1.30;1.10;;;;;;;;;;5024414;28;20698;-75
2021/12/04 06:17:05;;;;;;;1.50;1.35;;;;;;;;;;5039885;28;20679;-75
2021/12/04 06:25:02;;;;;;;1.60;1.10;;;;;;;;;;5013099;28;20276;-73
2021/12/04 06:27:29;;;;;;;1.67;1.38;;;;;;;;;;5019508;28;20551;-73
2021/12/04 06:29:56;;;;;;;1.60;1.45;;;;;;;;;;5053746;28;20200;-73
2021/12/04 06:32:24;;;;;;;1.70;1.40;;;;;;;;;;5025634;28;20674;-74
2021/12/04 06:34:52;;;;;;;1.67;1.25;;;;;;;;;;5046099;28;20219;-76
2021/12/04 06:37:19;;;;;;;1.48;1.38;;;;;;;;;;5027725;28;20207;-75
2021/12/04 06:39:46;;;;;;;1.33;1.23;;;;;;;;;;5028730;28;20576;-74
2021/12/04 06:42:13;;;;;;;1.48;1.30;;;;;;;;;;5029177;28;20677;-74
2021/12/04 06:44:40;;;;;;;1.55;1.17;;;;;;;;;;5026323;28;20184;-74
2021/12/04 06:47:07;;;;;;;1.30;1.20;;;;;;;;;;5039101;27;20198;-74
2021/12/04 06:49:38;;;;;;;1.27;1.17;;;;;;;;;;5039462;27;20215;-74
2021/12/04 06:52:09;;;;;;;2.05;1.30;;;;;;;;;;5028995;28;20207;-74
2021/12/04 06:54:38;;;;;;;1.60;1.33;;;;;;;;;;5028726;28;20234;-74
2021/12/04 06:57:09;;;;;;;1.50;1.40;;;;;;;;;;5030143;28;20188;-75
2021/12/04 06:59:39;;;;;;;1.23;1.13;;;;;;;;;;5024887;28;20246;-76
2021/12/04 07:02:06;;;;;;;1.67;1.58;;;;;;;;;;5049129;27;20298;-75
2021/12/04 07:04:37;;;;;;;1.45;1.20;;;;;;;;;;5028001;28;20207;-76
2021/12/04 07:07:06;;;;;;;3.88;1.40;;;;;;;;;;5030063;28;20722;-77
2021/12/04 07:09:33;;;;;;;1.20;1.10;;;;;;;;;;5028506;28;20571;-76
2021/12/04 07:12:00;;;;;;;1.45;1.15;;;;;;;;;;5126518;27;20196;-76
2021/12/04 07:14:27;;;;;;;1.95;1.58;;;;;;;;;;5024935;27;20219;-76
2021/12/04 07:16:54;;;;;;;1.50;1.27;;;;;;;;;;5036552;27;20191;-76
2021/12/04 07:19:21;;;;;;;1.40;1.30;;;;;;;;;;5029319;28;20290;-75
2021/12/04 07:21:49;;;;;;;2.10;1.90;;;;;;;;;;5065902;27;20188;-76
2021/12/04 07:24:17;;;;;;;1.85;1.60;;;;;;;;;;5049206;27;20203;-76
2021/12/04 07:26:45;;;;;;;1.50;1.38;;;;;;;;;;5009877;28;20663;-77
2021/12/04 07:29:12;;;;;;;1.50;1.40;;;;;;;;;;5025065;27;20578;-77
2021/12/04 07:31:39;;;;;;;1.80;1.60;;;;;;;;;;5059075;27;20218;-76
2021/12/04 07:34:07;;;;;;;1.50;1.40;;;;;;;;;;5069505;27;20212;-75
2021/12/04 07:36:34;;;;;;;1.60;1.50;;;;;;;;;;5029942;28;20658;-76
2021/12/04 07:39:01;;;;;;;2.03;1.83;;;;;;;;;;5017440;28;20659;-77
2021/12/04 07:41:30;;;;;;;1.92;1.77;;;;;;;;;;5019970;28;20566;-76
2021/12/04 07:43:57;;;;;;;1.65;1.55;;;;;;;;;;5028521;28;20191;-75
2021/12/04 07:46:24;;;;;;;2.00;1.67;;;;;;;;;;5039707;27;20199;-76
2021/12/04 07:48:51;;;;;;;1.58;1.48;;;;;;;;;;5035180;27;20542;-76
2021/12/04 07:51:19;;;;;;;1.50;1.40;;;;;;;;;;5029268;28;20212;-75
2021/12/04 07:53:47;;;;;;;2.05;1.30;;;;;;;;;;5018690;28;20563;-76
2021/12/04 07:56:14;;;;;;;2.22;1.30;;;;;;;;;;5013403;28;20204;-75
2021/12/04 07:58:43;;;;;;;1.50;1.40;;;;;;;;;;5051443;27;20188;-76
2021/12/04 08:01:10;;;;;;;1.30;1.20;;;;;;;;;;5030375;28;20219;-76
2021/12/04 08:03:37;;;;;;;2.28;1.92;;;;;;;;;;5018413;28;20200;-75
2021/12/04 08:06:05;;;;;;;1.40;1.25;;;;;;;;;;5028001;28;20206;-76
2021/12/04 08:08:32;;;;;;;2.40;1.95;;;;;;;;;;5024985;28;20208;-76
2021/12/04 08:10:59;;;;;;;1.95;1.77;;;;;;;;;;5068215;27;20670;-76
2021/12/04 08:13:28;;;;;;;2.00;1.80;;;;;;;;;;5027682;27;20586;-76
2021/12/04 08:15:57;;;;;;;1.67;1.50;;;;;;;;;;5022640;28;20215;-76
2021/12/04 08:18:24;;;;;;;2.20;2.00;;;;;;;;;;5023883;28;20211;-76
2021/12/04 08:20:51;;;;;;;3.10;2.40;;;;;;;;;;5034008;27;20651;-75
2021/12/04 08:23:18;;;;;;;2.35;2.15;;;;;;;;;;5025302;28;20204;-76
2021/12/04 08:25:46;;;;;;;2.05;1.85;;;;;;;;;;5019282;28;20200;-76
2021/12/04 08:28:13;;;;;;;2.35;2.15;;;;;;;;;;5027763;28;20203;-75
2021/12/04 08:30:41;;;;;;;2.28;2.08;;;;;;;;;;5032105;28;20218;-76
2021/12/04 08:33:10;;;;;;;2.28;2.08;;;;;;;;;;5023750;28;20211;-76
2021/12/04 08:35:39;;;;;;;3.42;2.55;;;;;;;;;;5027030;27;20218;-76
2021/12/04 08:38:06;;;;;;;2.55;1.98;;;;;;;;;;5020665;28;20655;-75
2021/12/04 08:40:35;;;;;;;3.35;2.95;;;;;;;;;;5025553;28;20206;-77
2021/12/04 08:43:02;;;;;;;2.28;1.95;;;;;;;;;;5015222;28;20558;-76
2021/12/04 08:45:29;;;;;;;3.13;2.85;;;;;;;;;;5047365;27;20197;-75
2021/12/04 08:47:56;;;;;;;3.05;2.75;;;;;;;;;;5064106;27;20222;-76
2021/12/04 08:50:26;;;;;;;2.63;2.42;;;;;;;;;;5114518;27;20686;-76
2021/12/04 08:52:54;;;;;;;3.47;3.17;;;;;;;;;;5067661;27;20200;-76
2021/12/04 08:55:21;;;;;;;2.53;2.33;;;;;;;;;;5045696;27;20319;-75
2021/12/04 08:57:48;;;;;;;3.33;3.03;;;;;;;;;;5027214;28;20670;-75
2021/12/04 09:00:17;;;;;;;3.00;2.75;;;;;;;;;;5028522;27;20220;-75
2021/12/04 09:02:45;;;;;;;2.90;2.35;;;;;;;;;;5011760;28;20212;-76
2021/12/04 09:05:13;;;;;;;3.15;2.85;;;;;;;;;;5008341;28;20658;-75
2021/12/04 09:07:41;;;;;;;3.95;2.65;;;;;;;;;;5009067;28;20211;-76
2021/12/04 09:10:09;;;;;;;3.13;2.67;;;;;;;;;;5023948;28;20203;-77
2021/12/04 09:12:38;;;;;;;2.72;2.53;;;;;;;;;;5033261;27;20196;-78
2021/12/04 09:15:05;;;;;;;2.83;2.63;;;;;;;;;;5031321;27;20223;-78
2021/12/04 09:17:33;;;;;;;2.92;2.28;;;;;;;;;;5024895;28;20230;-78
2021/12/04 09:20:00;;;;;;;3.35;2.97;;;;;;;;;;5022569;28;20666;-78
2021/12/04 09:22:29;;;;;;;3.40;2.60;;;;;;;;;;5023953;28;20211;-79
2021/12/04 09:24:59;;;;;;;2.78;2.58;;;;;;;;;;5020754;28;20223;-79
2021/12/04 09:27:44;;;;;;;3.50;2.85;;;;;;;;;;5027350;28;20214;-79
2021/12/04 09:30:33;;;;;;;3.47;3.17;;;;;;;;;;5017536;28;20219;-78
2021/12/04 09:36:28;;;;;;;2.97;2.78;;;;;;;;;;4989905;28;20308;-78
2021/12/04 10:01:19;;;;;;;3.30;2.80;;;;;;;;;;5056530;28;20348;-78
2021/12/04 10:12:23;;;;;;;2.30;2.15;;;;;;;;;;5019074;28;20668;-78
2021/12/04 10:20:40;;;;;;;2.90;2.65;;;;;;;;;;5027138;28;20187;-78
2021/12/04 10:23:24;;;;;;;2.50;2.30;;;;;;;;;;5026462;28;20281;-78
2021/12/04 10:34:14;;;;;;;3.25;2.95;;;;;;;;;;5047315;27;20218;-78
2021/12/04 10:36:41;;;;;;;3.08;2.78;;;;;;;;;;5057111;27;20268;-78
2021/12/04 10:39:09;;;;;;;4.47;3.35;;;;;;;;;;5018218;28;20203;-78
2021/12/04 10:41:38;;;;;;;2.85;2.65;;;;;;;;;;5025712;28;20231;-78
2021/12/04 10:44:10;;;;;;;4.00;3.15;;;;;;;;;;5028895;28;20192;-78
2021/12/04 10:46:38;;;;;;;3.83;3.20;;;;;;;;;;5030003;27;20558;-78
2021/12/04 10:49:12;;;;;;;4.20;3.40;;;;;;;;;;5028586;28;20211;-79
2021/12/04 10:51:49;;;;;;;7.60;3.70;;;;;;;;;;5029334;27;20215;-78
2021/12/04 10:54:23;;;;;;;2.78;2.50;;;;;;;;;;5030459;27;20299;-78
2021/12/04 10:57:06;;;;;;;4.00;3.58;;;;;;;;;;5017363;28;20291;-79
2021/12/04 10:59:44;;;;;;;2.70;2.50;;;;;;;;;;5028517;28;20273;-78
2021/12/04 11:02:20;;;;;;;3.83;3.53;;;;;;;;;;5028548;28;20270;-76
2021/12/04 11:04:50;;;;;;;3.30;3.00;;;;;;;;;;5045940;27;20271;-75
2021/12/04 11:26:53;;;;;;;3.65;3.35;;;;;;;;;;5015604;28;20601;-75
2021/12/04 11:40:31;;;;;;;3.88;2.50;;;;;;;;;;5016303;28;20214;-74
2021/12/04 11:43:02;;;;;;;2.90;2.70;;;;;;;;;;5023305;28;20230;-74
2021/12/04 11:45:40;;;;;;;5.88;4.20;;;;;;;;;;5029471;28;20200;-74
2021/12/04 11:48:07;;;;;;;3.58;3.28;;;;;;;;;;5027889;28;20203;-74
2021/12/04 11:50:38;;;;;;;2.67;2.45;;;;;;;;;;5028946;28;20203;-75
2021/12/04 11:53:06;;;;;;;4.47;3.85;;;;;;;;;;5025380;28;20651;-74
2021/12/04 11:55:35;;;;;;;3.85;3.45;;;;;;;;;;5026227;28;20226;-74
2021/12/04 11:58:03;;;;;;;3.33;2.67;;;;;;;;;;5028567;28;20267;-74
2021/12/04 12:00:32;;;;;;;3.40;2.95;;;;;;;;;;5026861;28;20279;-75
2021/12/04 12:03:09;;;;;;;3.72;3.10;;;;;;;;;;5028673;27;20681;-74
2021/12/04 12:05:44;;;;;;;3.13;2.83;;;;;;;;;;5021019;28;20217;-74
2021/12/04 12:08:21;;;;;;;2.95;2.70;;;;;;;;;;5024566;28;20257;-74
2021/12/04 12:10:50;;;;;;;2.90;2.70;;;;;;;;;;5014391;28;20223;-74
2021/12/04 12:13:24;;;;;;;5.72;2.97;;;;;;;;;;5029202;27;20211;-74
2021/12/04 12:15:58;;;;;;;2.65;2.25;;;;;;;;;;5028792;28;20685;-75
2021/12/04 12:18:25;;;;;;;3.38;2.58;;;;;;;;;;5016202;28;20666;-74
2021/12/04 12:20:57;;;;;;;3.85;2.58;;;;;;;;;;5009430;28;20659;-75
2021/12/04 12:23:28;;;;;;;3.53;2.30;;;;;;;;;;5035393;28;20199;-74
2021/12/04 12:26:05;;;;;;;2.60;2.08;;;;;;;;;;5027956;28;20274;-74
2021/12/04 12:34:16;;;;;;;2.88;2.50;;;;;;;;;;5028402;28;20207;-74
2021/12/04 12:36:44;;;;;;;3.15;2.80;;;;;;;;;;5028024;28;20210;-74
2021/12/04 12:39:16;;;;;;;2.50;2.28;;;;;;;;;;5024171;28;20200;-74
2021/12/04 12:41:44;;;;;;;2.50;2.20;;;;;;;;;;5021458;28;20234;-74
2021/12/04 12:44:13;;;;;;;2.45;2.25;;;;;;;;;;5028417;28;20207;-74
2021/12/04 12:46:43;;;;;;;2.42;2.22;;;;;;;;;;5027421;28;20203;-74
2021/12/04 12:49:24;;;;;;;2.67;1.98;;;;;;;;;;5009360;28;20201;-74
2021/12/04 12:52:01;;;;;;;2.20;2.00;;;;;;;;;;5008715;28;20544;-74
2021/12/04 12:54:30;;;;;;;2.35;2.13;;;;;;;;;;5009073;28;20207;-74
2021/12/04 12:57:02;;;;;;;2.45;2.25;;;;;;;;;;5025334;27;20196;-74
2021/12/04 12:59:45;;;;;;;2.40;2.20;;;;;;;;;;5028031;28;20216;-74
2021/12/04 13:13:43;;;;;;;2.05;1.85;;;;;;;;;;5030947;28;20198;-74
2021/12/04 13:16:15;;;;;;;2.65;2.33;;;;;;;;;;5075340;27;20227;-75
2021/12/04 13:18:46;;;;;;;2.10;1.90;;;;;;;;;;5033004;27;20195;-75
2021/12/04 13:21:13;;;;;;;2.28;2.08;;;;;;;;;;5033438;28;20199;-75
2021/12/04 13:23:41;;;;;;;2.60;2.40;;;;;;;;;;5032941;28;20195;-75
2021/12/04 13:26:11;;;;;;;2.30;1.55;;;;;;;;;;5025880;27;20203;-75
2021/12/04 13:28:39;;;;;;;4.38;2.13;;;;;;;;;;5024503;28;20227;-75
2021/12/04 13:31:06;;;;;;;2.60;2.40;;;;;;;;;;5044278;27;20215;-75
2021/12/04 13:33:37;;;;;;;2.40;2.20;;;;;;;;;;5026976;28;20561;-75
2021/12/04 13:36:04;;;;;;;1.92;1.80;;;;;;;;;;5024960;28;20212;-75
2021/12/04 13:38:31;;;;;;;2.60;2.40;;;;;;;;;;5023803;28;20576;-75
2021/12/04 13:40:59;;;;;;;2.50;1.95;;;;;;;;;;5036598;28;20657;-75
2021/12/04 13:43:26;;;;;;;2.20;2.00;;;;;;;;;;5030340;28;20655;-75
2021/12/04 13:45:58;;;;;;;2.28;2.05;;;;;;;;;;5054530;28;20184;-74
2021/12/04 13:48:25;;;;;;;2.40;1.83;;;;;;;;;;5032524;27;20196;-74
2021/12/04 13:50:52;;;;;;;2.28;2.08;;;;;;;;;;5032975;27;20199;-74
2021/12/04 13:53:24;;;;;;;1.50;1.40;;;;;;;;;;5020827;28;20196;-74
2021/12/04 13:55:52;;;;;;;5.00;2.10;;;;;;;;;;5027872;28;20251;-74
2021/12/04 13:58:21;;;;;;;1.60;1.50;;;;;;;;;;5028744;27;20203;-74
2021/12/04 14:00:48;;;;;;;1.73;1.63;;;;;;;;;;5032209;27;20226;-75
2021/12/04 14:03:20;;;;;;;2.45;2.22;;;;;;;;;;5032293;27;20202;-74
2021/12/04 14:05:47;;;;;;;1.65;1.40;;;;;;;;;;5036327;27;20194;-76
2021/12/04 14:08:14;;;;;;;1.73;1.60;;;;;;;;;;5038941;27;20215;-75
2021/12/04 14:10:42;;;;;;;2.38;1.77;;;;;;;;;;5035215;27;20666;-75
2021/12/04 14:13:10;;;;;;;1.73;1.27;;;;;;;;;;5034910;27;20574;-75
2021/12/04 14:15:43;;;;;;;1.50;1.35;;;;;;;;;;5030514;27;20224;-75
2021/12/04 14:18:11;;;;;;;2.72;1.52;;;;;;;;;;5021780;28;20543;-75
2021/12/04 14:20:41;;;;;;;1.20;1.10;;;;;;;;;;5045886;27;20208;-74
2021/12/04 14:23:08;;;;;;;1.58;1.40;;;;;;;;;;5019492;28;20201;-75
2021/12/04 14:25:42;;;;;;;1.67;1.38;;;;;;;;;;5031417;27;20207;-75
2021/12/04 14:28:09;;;;;;;2.20;2.08;;;;;;;;;;5059823;27;20602;-75
2021/12/04 14:30:36;;;;;;;2.67;2.35;;;;;;;;;;5072578;27;20208;-75
2021/12/04 14:33:06;;;;;;;2.25;1.80;;;;;;;;;;5018957;28;20574;-75
2021/12/04 14:35:34;;;;;;;1.73;1.20;;;;;;;;;;5037999;27;20370;-75
2021/12/04 14:38:02;;;;;;;1.80;1.60;;;;;;;;;;5028413;28;20196;-75
2021/12/04 14:40:35;;;;;;;1.90;1.80;;;;;;;;;;5026590;27;20210;-75
2021/12/04 14:43:03;;;;;;;1.90;1.70;;;;;;;;;;5045813;27;20199;-75
2021/12/04 14:45:33;;;;;;;1.50;1.40;;;;;;;;;;5034316;27;20200;-76
2021/12/04 14:48:03;;;;;;;1.92;1.50;;;;;;;;;;5027603;28;20672;-75
2021/12/04 14:50:32;;;;;;;2.33;1.70;;;;;;;;;;5024090;28;20195;-75
2021/12/04 14:53:01;;;;;;;2.45;2.25;;;;;;;;;;5025602;28;20196;-75
2021/12/04 14:55:29;;;;;;;1.60;1.42;;;;;;;;;;5034882;27;20251;-75
2021/12/04 14:57:57;;;;;;;2.83;2.13;;;;;;;;;;5045502;27;20661;-75
2021/12/04 15:00:25;;;;;;;2.35;2.05;;;;;;;;;;5037834;27;20777;-75
2021/12/04 15:02:54;;;;;;;2.85;2.13;;;;;;;;;;5021262;28;20212;-75
2021/12/04 15:05:34;;;;;;;2.92;2.60;;;;;;;;;;5027303;28;20200;-76
2021/12/04 15:08:02;;;;;;;2.30;2.05;;;;;;;;;;5024990;28;20658;-75
2021/12/04 15:10:29;;;;;;;2.03;1.75;;;;;;;;;;5041945;27;20566;-74
2021/12/04 15:12:58;;;;;;;1.70;1.50;;;;;;;;;;5026850;28;20226;-74
2021/12/04 15:15:28;;;;;;;1.92;1.80;;;;;;;;;;5030529;27;20280;-74
2021/12/04 15:17:56;;;;;;;4.22;3.70;;;;;;;;;;5027189;28;20586;-74
2021/12/04 15:20:30;;;;;;;4.70;3.28;;;;;;;;;;5029101;28;20249;-74
2021/12/04 15:23:01;;;;;;;3.92;3.03;;;;;;;;;;5027856;28;20208;-74
2021/12/04 15:25:35;;;;;;;3.33;2.45;;;;;;;;;;5025288;27;20202;-75
2021/12/04 15:28:03;;;;;;;3.40;3.10;;;;;;;;;;5029554;28;20202;-76
2021/12/04 15:30:30;;;;;;;2.95;2.53;;;;;;;;;;5029097;28;20305;-75
2021/12/04 15:32:57;;;;;;;3.08;2.88;;;;;;;;;;5026192;28;20203;-75
2021/12/04 15:35:30;;;;;;;2.42;2.15;;;;;;;;;;5026084;28;20709;-76
2021/12/04 15:38:03;;;;;;;2.47;2.28;;;;;;;;;;5030131;28;20304;-76
2021/12/04 15:40:37;;;;;;;3.28;2.97;;;;;;;;;;5035991;27;20206;-76
2021/12/04 15:43:10;;;;;;;2.95;2.75;;;;;;;;;;5062404;27;20214;-75
2021/12/04 15:45:46;;;;;;;3.75;2.78;;;;;;;;;;5054376;27;20208;-75
2021/12/04 15:48:35;;;;;;;3.97;2.42;;;;;;;;;;5027184;28;20227;-75
2021/12/04 15:51:49;;;;;;;3.17;2.65;;;;;;;;;;5023814;28;20234;-75
2021/12/04 15:54:19;;;;;;;2.75;2.40;;;;;;;;;;5019715;27;20208;-76
2021/12/04 15:56:52;;;;;;;6.10;3.30;;;;;;;;;;5046055;28;20271;-75
2021/12/04 15:59:20;;;;;;;2.90;2.60;;;;;;;;;;5036348;28;20314;-74
2021/12/04 16:01:47;;;;;;;2.72;2.38;;;;;;;;;;5027794;28;20244;-75
2021/12/04 16:04:21;;;;;;;3.00;2.78;;;;;;;;;;5027609;28;20200;-75
2021/12/04 16:06:48;;;;;;;3.67;3.35;;;;;;;;;;5021695;28;20192;-74
2021/12/04 16:09:15;;;;;;;4.20;2.33;;;;;;;;;;5014866;28;20208;-74
2021/12/04 16:11:44;;;;;;;3.20;2.90;;;;;;;;;;5016737;28;20662;-74
2021/12/04 16:14:13;;;;;;;3.05;2.70;;;;;;;;;;5028624;28;20290;-74
2021/12/04 16:16:41;;;;;;;3.33;2.22;;;;;;;;;;5024749;28;20682;-74
2021/12/04 16:19:09;;;;;;;4.03;3.55;;;;;;;;;;5023990;28;20195;-75
2021/12/04 16:21:36;;;;;;;2.75;2.33;;;;;;;;;;5028835;28;20689;-74
2021/12/04 16:24:05;;;;;;;2.85;2.63;;;;;;;;;;5022585;28;20655;-75
2021/12/04 16:26:33;;;;;;;3.35;3.05;;;;;;;;;;5025546;28;20196;-74
2021/12/04 16:29:07;;;;;;;3.38;3.17;;;;;;;;;;5048682;27;20283;-75
2021/12/04 16:31:57;;;;;;;2.70;2.50;;;;;;;;;;5039849;27;20551;-74
2021/12/04 16:37:17;;;;;;;3.50;3.05;;;;;;;;;;4997025;28;20234;-75
2021/12/04 16:39:44;;;;;;;3.38;2.60;;;;;;;;;;5024318;28;20600;-74
2021/12/04 16:42:12;;;;;;;3.50;3.28;;;;;;;;;;5028296;28;20206;-75
2021/12/04 16:44:39;;;;;;;2.80;2.10;;;;;;;;;;5029752;27;20219;-74
2021/12/04 16:47:08;;;;;;;3.75;2.80;;;;;;;;;;5020319;27;20192;-74
2021/12/04 16:49:38;;;;;;;2.72;2.53;;;;;;;;;;5026826;27;20200;-76
2021/12/04 16:55:07;;;;;;;2.92;2.72;;;;;;;;;;5019543;28;20232;-74
2021/12/04 16:57:48;;;;;;;2.90;2.45;;;;;;;;;;5027336;28;20255;-74
2021/12/04 17:00:16;;;;;;;3.78;3.30;;;;;;;;;;5030636;27;20556;-75
2021/12/04 17:02:45;;;;;;;4.30;3.70;;;;;;;;;;5017612;28;20200;-74
2021/12/04 17:05:14;;;;;;;3.10;2.60;;;;;;;;;;5014807;28;20227;-75
2021/12/04 17:07:41;;;;;;;2.83;2.63;;;;;;;;;;5024049;28;20200;-74
2021/12/04 17:10:10;;;;;;;3.70;3.00;;;;;;;;;;5032365;27;20586;-74
2021/12/04 17:12:37;;;;;;;2.72;2.53;;;;;;;;;;5026906;28;20614;-75
2021/12/04 17:15:07;;;;;;;4.55;2.95;;;;;;;;;;5024324;27;20195;-74
2021/12/04 17:17:36;;;;;;;2.90;2.60;;;;;;;;;;5022804;28;20310;-75
2021/12/04 17:20:05;;;;;;;3.20;2.90;;;;;;;;;;5024792;28;20207;-74
2021/12/04 17:22:33;;;;;;;3.60;3.15;;;;;;;;;;5021488;28;20265;-76
2021/12/04 17:25:00;;;;;;;6.70;2.92;;;;;;;;;;5026554;28;20195;-75
2021/12/04 17:27:27;;;;;;;3.60;3.30;;;;;;;;;;5030570;28;20199;-75
2021/12/04 17:29:55;;;;;;;4.00;3.70;;;;;;;;;;5054649;27;20272;-76